Time;durP1;ratioP1;P1;durP2;ratioP2;P2;SDS_P1;SDS_P2;PMS_P1;PMS_P2;Temp;Humidity;BMP_temperature;BMP_pressure;BME280_temperature;BME280_humidity;BME280_pressure;Samples;Min_cycle;Max_cycle;Signal;HPM_P1;HPM_P2
2023/06/23 00:01:17;;;;;;;0.10;0.10;;;16.60;99.90;;;;;;5052127;28;20047;-78
2023/06/23 00:03:45;;;;;;;0.93;0.93;;;16.70;99.90;;;;;;5053235;28;20021;-79
2023/06/23 00:06:14;;;;;;;3.38;2.20;;;16.70;99.90;;;;;;5052548;28;20072;-79
2023/06/23 00:08:41;;;;;;;1.25;1.20;;;16.60;99.90;;;;;;5053186;28;20362;-78
2023/06/23 00:11:08;;;;;;;0.35;0.35;;;16.70;99.90;;;;;;5053539;28;20044;-79
2023/06/23 00:13:34;;;;;;;3.03;2.38;;;16.70;99.90;;;;;;5053044;28;20021;-79
2023/06/23 00:16:06;;;;;;;0.85;0.65;;;16.70;99.90;;;;;;5052830;28;20116;-79
2023/06/23 00:18:37;;;;;;;6.28;2.95;;;16.70;99.90;;;;;;5053195;28;20480;-79
2023/06/23 00:21:07;;;;;;;4.32;2.42;;;16.70;99.90;;;;;;5053230;28;20436;-79
2023/06/23 00:23:34;;;;;;;0.13;0.13;;;16.80;99.90;;;;;;5053103;28;20039;-79
2023/06/23 00:26:00;;;;;;;0.10;0.10;;;16.80;99.90;;;;;;5052206;28;20029;-78
2023/06/23 00:28:26;;;;;;;2.70;0.95;;;16.80;99.90;;;;;;5053170;28;20029;-79
2023/06/23 00:30:55;;;;;;;0.30;0.30;;;16.80;99.90;;;;;;5052789;28;20052;-79
2023/06/23 00:33:21;;;;;;;1.02;0.77;;;16.70;99.90;;;;;;5051600;28;20100;-79
2023/06/23 00:35:47;;;;;;;0.10;0.10;;;16.70;99.90;;;;;;5052791;28;20080;-79
2023/06/23 00:38:13;;;;;;;0.28;0.28;;;16.70;99.90;;;;;;5052997;28;20032;-80
2023/06/23 00:40:40;;;;;;;0.60;0.57;;;16.60;99.90;;;;;;5052763;28;20393;-79
2023/06/23 00:43:06;;;;;;;0.05;0.05;;;16.70;99.90;;;;;;5060474;28;20037;-79
2023/06/23 00:45:31;;;;;;;0.08;0.08;;;16.70;99.90;;;;;;5072521;28;20020;-79
2023/06/23 00:47:57;;;;;;;3.25;0.55;;;16.80;99.90;;;;;;5072653;28;20362;-80
2023/06/23 00:50:24;;;;;;;0.20;0.20;;;16.80;99.90;;;;;;5072555;28;20051;-79
2023/06/23 00:52:51;;;;;;;0.00;0.00;;;16.80;99.90;;;;;;5072988;28;20532;-79
2023/06/23 00:55:28;;;;;;;0.05;0.05;;;16.80;99.90;;;;;;5071659;28;20162;-80
2023/06/23 00:57:56;;;;;;;0.35;0.35;;;16.60;99.90;;;;;;5071648;28;20493;-79
2023/06/23 01:00:23;;;;;;;0.08;0.08;;;16.70;99.90;;;;;;5072354;28;20028;-80
2023/06/23 01:02:51;;;;;;;0.10;0.10;;;16.70;99.90;;;;;;5071277;28;20469;-79
2023/06/23 01:05:30;;;;;;;0.00;0.00;;;16.70;99.90;;;;;;5071593;28;20476;-79
2023/06/23 01:08:03;;;;;;;0.00;0.00;;;16.70;99.90;;;;;;5071295;28;20037;-79
2023/06/23 01:10:39;;;;;;;0.30;0.30;;;16.60;99.90;;;;;;5072529;28;20033;-79
2023/06/23 01:13:18;;;;;;;0.30;0.30;;;16.70;99.90;;;;;;5072192;28;20040;-79
2023/06/23 01:16:09;;;;;;;0.22;0.22;;;16.60;99.90;;;;;;5072395;28;20046;-80
2023/06/23 01:18:58;;;;;;;0.00;0.00;;;16.50;99.90;;;;;;5048366;28;20017;-79
2023/06/23 01:21:38;;;;;;;0.43;0.43;;;16.60;99.90;;;;;;5072356;28;20041;-80
2023/06/23 01:24:17;;;;;;;1.00;0.93;;;16.60;99.90;;;;;;5072323;28;20040;-79
2023/06/23 01:27:01;;;;;;;0.35;0.35;;;16.50;99.90;;;;;;5072297;28;20024;-79
2023/06/23 01:29:34;;;;;;;0.00;0.00;;;16.60;99.90;;;;;;5072392;28;20028;-79
2023/06/23 01:32:10;;;;;;;0.68;0.68;;;16.60;99.90;;;;;;5072256;28;20476;-79
2023/06/23 01:34:40;;;;;;;0.00;0.00;;;16.70;99.90;;;;;;5072411;28;20029;-79
2023/06/23 01:37:10;;;;;;;0.52;0.52;;;16.70;99.90;;;;;;5075150;28;20119;-79
2023/06/23 01:39:39;;;;;;;0.10;0.10;;;16.70;99.90;;;;;;5075218;28;20024;-79
2023/06/23 01:42:11;;;;;;;0.45;0.45;;;16.50;99.90;;;;;;5075950;28;20085;-79
2023/06/23 01:44:41;;;;;;;0.00;0.00;;;16.40;99.90;;;;;;5074747;28;20416;-79
2023/06/23 01:47:27;;;;;;;0.00;0.00;;;16.40;99.90;;;;;;5076021;28;20108;-79
2023/06/23 01:49:58;;;;;;;0.00;0.00;;;16.30;99.90;;;;;;5076232;28;20515;-79
2023/06/23 01:52:25;;;;;;;0.10;0.10;;;16.40;99.90;;;;;;5075872;28;20028;-80
2023/06/23 01:54:53;;;;;;;0.10;0.10;;;16.60;99.90;;;;;;5076011;28;20088;-79
2023/06/23 01:57:21;;;;;;;0.30;0.30;;;16.50;99.90;;;;;;5075491;28;20520;-79
2023/06/23 01:59:49;;;;;;;0.10;0.10;;;16.60;99.90;;;;;;5074576;28;20032;-79
2023/06/23 02:02:16;;;;;;;0.00;0.00;;;16.50;99.90;;;;;;5074342;28;20032;-79
2023/06/23 02:04:45;;;;;;;0.00;0.00;;;16.50;99.90;;;;;;5074630;28;20448;-79
2023/06/23 02:07:12;;;;;;;0.10;0.10;;;16.50;99.90;;;;;;5075643;28;20025;-79
2023/06/23 02:09:41;;;;;;;1.58;1.33;;;16.50;99.90;;;;;;5057784;28;20041;-79
2023/06/23 02:12:09;;;;;;;0.10;0.10;;;16.40;99.90;;;;;;5075669;28;20056;-79
2023/06/23 02:14:37;;;;;;;1.95;0.25;;;16.40;99.90;;;;;;5074027;28;20055;-79
2023/06/23 02:17:09;;;;;;;0.08;0.08;;;16.30;99.90;;;;;;5075690;28;20039;-80
2023/06/23 02:19:38;;;;;;;0.00;0.00;;;16.40;99.90;;;;;;5075460;28;20060;-79
2023/06/23 02:22:11;;;;;;;0.32;0.32;;;16.60;99.90;;;;;;5074116;28;20056;-79
2023/06/23 02:24:39;;;;;;;0.00;0.00;;;16.70;99.90;;;;;;5074097;28;20044;-79
2023/06/23 02:27:06;;;;;;;0.10;0.10;;;16.70;99.90;;;;;;5075080;28;20032;-79
2023/06/23 02:29:36;;;;;;;0.00;0.00;;;16.70;99.90;;;;;;5074072;28;20021;-78
2023/06/23 02:32:02;;;;;;;0.00;0.00;;;16.70;99.90;;;;;;5074051;28;20024;-79
2023/06/23 02:34:29;;;;;;;0.00;0.00;;;16.80;99.90;;;;;;5075029;28;20029;-79
2023/06/23 02:36:59;;;;;;;0.05;0.05;;;16.80;99.90;;;;;;5075256;28;20028;-79
2023/06/23 02:39:30;;;;;;;0.00;0.00;;;16.90;99.90;;;;;;5075157;28;20086;-79
2023/06/23 02:41:59;;;;;;;0.05;0.05;;;16.90;99.90;;;;;;5073438;28;20056;-79
2023/06/23 02:44:32;;;;;;;0.43;0.43;;;16.80;99.90;;;;;;5075278;28;20435;-79
2023/06/23 02:47:02;;;;;;;0.00;0.00;;;16.70;99.90;;;;;;5073393;28;20481;-79
2023/06/23 02:49:30;;;;;;;2.35;1.65;;;16.60;99.90;;;;;;5074499;28;20032;-79
2023/06/23 02:51:59;;;;;;;0.50;0.43;;;16.40;99.90;;;;;;5074621;28;20021;-79
2023/06/23 02:54:26;;;;;;;3.75;3.40;;;16.20;99.90;;;;;;5074720;28;20091;-79
2023/06/23 02:56:54;;;;;;;0.50;0.50;;;16.10;99.90;;;;;;5073463;28;20124;-79
2023/06/23 02:59:21;;;;;;;1.45;1.35;;;16.00;99.90;;;;;;5073841;28;20009;-79
2023/06/23 03:01:52;;;;;;;0.10;0.10;;;15.90;99.90;;;;;;5074615;28;20078;-79
2023/06/23 03:04:18;;;;;;;1.40;1.30;;;15.80;99.90;;;;;;5074490;28;20016;-79
2023/06/23 03:06:45;;;;;;;0.25;0.25;;;15.70;99.90;;;;;;5074894;28;20275;-79
2023/06/23 03:09:11;;;;;;;0.68;0.68;;;15.80;99.90;;;;;;5074080;28;20479;-79
2023/06/23 03:11:37;;;;;;;2.63;2.42;;;15.80;99.90;;;;;;5074554;28;20056;-79
2023/06/23 03:14:06;;;;;;;0.13;0.13;;;15.70;99.90;;;;;;5072932;28;20471;-79
2023/06/23 03:16:44;;;;;;;0.10;0.10;;;16.00;99.90;;;;;;5073351;28;20127;-79
2023/06/23 03:19:46;;;;;;;3.60;1.73;;;16.20;99.90;;;;;;5074264;28;20028;-79
2023/06/23 03:22:21;;;;;;;0.00;0.00;;;16.00;99.90;;;;;;5073231;28;20032;-79
2023/06/23 03:24:51;;;;;;;0.03;0.03;;;16.20;99.90;;;;;;5072591;28;20373;-79
2023/06/23 03:27:21;;;;;;;0.00;0.00;;;16.40;99.90;;;;;;5074283;28;20477;-79
2023/06/23 03:29:53;;;;;;;0.00;0.00;;;16.60;99.90;;;;;;5072697;28;20023;-79
2023/06/23 03:32:28;;;;;;;2.22;1.40;;;16.30;99.90;;;;;;5073956;28;20040;-79
2023/06/23 03:35:15;;;;;;;0.40;0.40;;;16.00;99.90;;;;;;5073231;28;20480;-79
2023/06/23 03:38:03;;;;;;;0.60;0.60;;;15.90;99.90;;;;;;5072768;28;20055;-79
2023/06/23 03:40:36;;;;;;;0.10;0.10;;;16.00;99.90;;;;;;5052107;28;20036;-79
2023/06/23 03:43:08;;;;;;;0.00;0.00;;;16.10;99.90;;;;;;5072255;28;20405;-79
2023/06/23 03:45:35;;;;;;;0.28;0.28;;;16.00;99.90;;;;;;5073884;28;20037;-79
2023/06/23 03:48:03;;;;;;;0.00;0.00;;;16.20;99.90;;;;;;5073835;28;20020;-79
2023/06/23 03:50:34;;;;;;;0.10;0.10;;;16.40;99.90;;;;;;5073660;28;20032;-79
2023/06/23 03:53:02;;;;;;;0.00;0.00;;;16.40;99.90;;;;;;5073497;28;20025;-79
2023/06/23 03:55:31;;;;;;;0.05;0.05;;;16.50;99.90;;;;;;5073540;28;20040;-79
2023/06/23 03:58:00;;;;;;;0.52;0.52;;;16.60;99.90;;;;;;5072513;28;20489;-79
2023/06/23 04:00:26;;;;;;;0.00;0.00;;;16.60;99.90;;;;;;5073096;28;20025;-79
2023/06/23 04:02:54;;;;;;;0.15;0.15;;;16.60;99.90;;;;;;5073575;28;20388;-79
2023/06/23 04:05:21;;;;;;;0.00;0.00;;;16.40;99.90;;;;;;5073362;28;20107;-79
2023/06/23 04:07:49;;;;;;;0.32;0.32;;;16.60;99.90;;;;;;5072925;28;20020;-79
2023/06/23 04:10:18;;;;;;;0.30;0.30;;;16.50;99.90;;;;;;5073168;28;20094;-79
2023/06/23 04:12:46;;;;;;;3.20;1.80;;;16.30;99.90;;;;;;5072117;28;20020;-78
2023/06/23 04:15:15;;;;;;;1.55;1.15;;;15.90;99.90;;;;;;5073386;28;20066;-79
2023/06/23 04:17:43;;;;;;;2.72;1.20;;;15.80;99.90;;;;;;5069891;28;20029;-78
2023/06/23 04:20:12;;;;;;;0.55;0.55;;;15.70;99.90;;;;;;5063067;28;20024;-79
2023/06/23 04:22:40;;;;;;;1.17;1.15;;;15.80;99.90;;;;;;5072706;28;20040;-79
2023/06/23 04:25:08;;;;;;;0.47;0.47;;;16.00;99.90;;;;;;5073021;28;20024;-79
2023/06/23 04:27:37;;;;;;;0.10;0.10;;;16.10;99.90;;;;;;5073040;28;20423;-79
2023/06/23 04:30:05;;;;;;;0.10;0.10;;;16.10;99.90;;;;;;5073257;28;20028;-79
2023/06/23 04:32:32;;;;;;;0.75;0.75;;;16.10;99.90;;;;;;5073063;28;20027;-79
2023/06/23 04:34:58;;;;;;;2.22;0.95;;;16.00;99.90;;;;;;5072727;28;20032;-79
2023/06/23 04:37:31;;;;;;;2.55;2.20;;;15.90;99.90;;;;;;5056951;28;20074;-78
2023/06/23 04:40:01;;;;;;;0.32;0.32;;;15.80;99.90;;;;;;5072775;28;20085;-78
2023/06/23 04:42:56;;;;;;;6.20;5.60;;;15.70;99.90;;;;;;5072779;28;20043;-79
2023/06/23 04:45:26;;;;;;;4.03;1.48;;;15.80;99.90;;;;;;5072101;28;20045;-78
2023/06/23 04:48:01;;;;;;;2.60;2.38;;;16.00;99.90;;;;;;5072943;28;20461;-78
2023/06/23 04:50:33;;;;;;;5.75;4.90;;;16.00;99.90;;;;;;5046424;28;20026;-78
2023/06/23 04:53:11;;;;;;;12.93;6.13;;;16.00;99.90;;;;;;5073047;28;20036;-79
2023/06/23 04:55:40;;;;;;;16.88;7.03;;;16.00;99.90;;;;;;5072455;28;20040;-78
2023/06/23 04:58:08;;;;;;;3.20;2.85;;;15.90;99.90;;;;;;5071687;28;20062;-78
2023/06/23 05:00:35;;;;;;;1.35;1.00;;;16.30;99.90;;;;;;5072319;28;20485;-78
2023/06/23 05:03:03;;;;;;;1.65;1.55;;;16.50;99.90;;;;;;5072716;28;20120;-78
2023/06/23 05:05:31;;;;;;;1.92;1.75;;;16.30;99.90;;;;;;5072368;28;20473;-78
2023/06/23 05:07:59;;;;;;;0.10;0.10;;;16.30;99.90;;;;;;5072793;28;20058;-78
2023/06/23 05:10:28;;;;;;;2.88;2.03;;;16.70;99.90;;;;;;5072159;28;20047;-78
2023/06/23 05:12:56;;;;;;;3.03;1.60;;;16.60;99.90;;;;;;5072369;28;20036;-78
2023/06/23 05:15:23;;;;;;;6.45;2.70;;;16.70;99.90;;;;;;5072339;28;20036;-78
2023/06/23 05:17:53;;;;;;;9.13;2.75;;;17.00;99.90;;;;;;5070993;28;20016;-78
2023/06/23 05:20:22;;;;;;;1.77;1.67;;;16.80;99.90;;;;;;5072344;28;20111;-78
2023/06/23 05:22:51;;;;;;;0.80;0.55;;;16.70;99.90;;;;;;5072269;28;20468;-78
2023/06/23 05:25:19;;;;;;;12.63;3.67;;;16.70;99.90;;;;;;5071132;28;20067;-78
2023/06/23 05:27:45;;;;;;;5.15;2.40;;;16.70;99.90;;;;;;5071874;28;20027;-78
2023/06/23 05:30:17;;;;;;;4.18;2.83;;;16.70;99.90;;;;;;5072249;28;20028;-78
2023/06/23 05:32:44;;;;;;;0.50;0.50;;;16.80;99.90;;;;;;5072327;28;20033;-77
2023/06/23 05:35:11;;;;;;;13.45;8.10;;;16.90;99.90;;;;;;5072118;28;20537;-77
2023/06/23 05:37:40;;;;;;;3.65;3.00;;;17.00;99.90;;;;;;5072252;28;20115;-77
2023/06/23 05:40:11;;;;;;;5.22;3.42;;;17.30;99.90;;;;;;5070995;28;20039;-77
2023/06/23 05:42:37;;;;;;;9.13;3.53;;;17.50;99.90;;;;;;5072092;28;20059;-77
2023/06/23 05:45:04;;;;;;;7.72;4.45;;;17.30;99.90;;;;;;5071320;28;20482;-77
2023/06/23 05:47:45;;;;;;;5.30;3.80;;;17.30;99.90;;;;;;5055571;28;20116;-77
2023/06/23 05:50:19;;;;;;;2.17;1.98;;;17.40;99.90;;;;;;5071247;28;20408;-78
2023/06/23 05:52:56;;;;;;;3.85;2.85;;;17.60;99.90;;;;;;5070813;28;20025;-75
2023/06/23 05:55:24;;;;;;;3.15;2.92;;;17.70;99.90;;;;;;5071904;28;20119;-74
2023/06/23 05:57:56;;;;;;;0.73;0.73;;;17.80;99.90;;;;;;5072122;28;20021;-74
2023/06/23 06:00:24;;;;;;;2.28;1.42;;;18.30;99.90;;;;;;5072113;28;20021;-74
2023/06/23 06:02:52;;;;;;;13.35;2.78;;;18.50;99.90;;;;;;5071837;28;20097;-73
2023/06/23 06:05:20;;;;;;;9.65;1.63;;;18.90;99.90;;;;;;5072032;28;20373;-74
2023/06/23 06:07:47;;;;;;;1.20;0.90;;;19.10;99.90;;;;;;5070497;28;20591;-76
2023/06/23 06:10:15;;;;;;;0.85;0.75;;;18.60;99.90;;;;;;5037468;28;20024;-76
2023/06/23 06:12:44;;;;;;;2.75;0.98;;;18.50;99.90;;;;;;5064451;28;20021;-77
2023/06/23 06:15:12;;;;;;;10.15;4.97;;;19.10;99.90;;;;;;5050775;28;20485;-77
2023/06/23 06:17:40;;;;;;;3.25;2.70;;;19.20;99.90;;;;;;5050387;28;20032;-77
2023/06/23 06:20:08;;;;;;;5.68;1.98;;;19.10;99.90;;;;;;5051235;28;20101;-77
2023/06/23 06:22:37;;;;;;;1.65;1.55;;;19.40;99.90;;;;;;5051086;28;20040;-76
2023/06/23 06:25:05;;;;;;;4.25;3.67;;;19.60;99.90;;;;;;5055724;28;20025;-76
2023/06/23 06:27:33;;;;;;;1.17;1.10;;;19.00;99.90;;;;;;5054238;28;20032;-77
2023/06/23 06:30:00;;;;;;;5.82;2.25;;;19.30;99.90;;;;;;5053361;28;20035;-77
2023/06/23 06:32:29;;;;;;;1.10;0.75;;;19.50;99.90;;;;;;5054213;28;20040;-77
2023/06/23 06:34:57;;;;;;;0.63;0.63;;;19.50;99.90;;;;;;5054198;28;20053;-77
2023/06/23 06:37:25;;;;;;;1.20;1.10;;;19.40;99.90;;;;;;5054230;28;20040;-77
2023/06/23 06:39:52;;;;;;;15.60;5.18;;;19.30;99.90;;;;;;5054082;28;20032;-76
2023/06/23 06:42:18;;;;;;;0.65;0.65;;;19.20;99.90;;;;;;5054208;28;20029;-76
2023/06/23 06:44:44;;;;;;;0.30;0.30;;;19.10;99.90;;;;;;5053863;28;20025;-77
2023/06/23 06:47:11;;;;;;;6.03;1.98;;;19.00;99.90;;;;;;5052574;28;20579;-76
2023/06/23 06:49:40;;;;;;;0.43;0.43;;;19.10;99.90;;;;;;5053978;28;20385;-76
2023/06/23 06:52:06;;;;;;;5.50;3.50;;;19.40;99.90;;;;;;5057980;28;20028;-76
2023/06/23 06:54:33;;;;;;;2.85;0.93;;;19.30;99.90;;;;;;5060140;28;20384;-77
2023/06/23 06:56:59;;;;;;;5.70;4.05;;;19.30;99.90;;;;;;5062128;28;20080;-77
2023/06/23 06:59:24;;;;;;;2.78;2.58;;;19.60;99.90;;;;;;5071352;28;20052;-77
2023/06/23 07:01:50;;;;;;;31.42;4.70;;;19.70;99.90;;;;;;5073223;28;20146;-76
2023/06/23 07:04:17;;;;;;;1.05;1.02;;;19.50;99.90;;;;;;5061786;28;20032;-76
2023/06/23 07:06:42;;;;;;;3.22;2.22;;;19.50;99.90;;;;;;5061160;28;20036;-76
2023/06/23 07:09:08;;;;;;;1.60;1.25;;;20.20;99.90;;;;;;5058636;28;20030;-78
2023/06/23 07:11:35;;;;;;;0.95;0.95;;;19.90;99.90;;;;;;5043617;28;20033;-77
2023/06/23 07:14:03;;;;;;;1.30;0.43;;;20.30;99.90;;;;;;5053595;28;20112;-77
2023/06/23 07:16:33;;;;;;;0.65;0.65;;;20.30;99.90;;;;;;5053470;28;20135;-76
2023/06/23 07:18:59;;;;;;;3.58;2.92;;;20.30;99.90;;;;;;5053465;28;20029;-77
2023/06/23 07:21:25;;;;;;;0.55;0.55;;;20.20;99.90;;;;;;5053397;28;20444;-77
2023/06/23 07:23:51;;;;;;;0.17;0.17;;;20.00;99.90;;;;;;5053705;28;20079;-77
2023/06/23 07:26:17;;;;;;;7.32;4.10;;;19.90;99.90;;;;;;5053349;28;20037;-78
2023/06/23 07:28:43;;;;;;;0.52;0.52;;;20.00;99.90;;;;;;5053420;28;20031;-77
2023/06/23 07:31:08;;;;;;;5.50;2.15;;;20.60;99.90;;;;;;5052655;28;20021;-79
2023/06/23 07:33:34;;;;;;;0.85;0.82;;;20.20;99.90;;;;;;5051537;28;20029;-79
2023/06/23 07:36:00;;;;;;;5.32;2.88;;;20.00;99.90;;;;;;5053785;28;20029;-76
2023/06/23 07:38:27;;;;;;;8.80;4.20;;;20.10;99.90;;;;;;5054043;28;20059;-77
2023/06/23 07:40:53;;;;;;;0.75;0.75;;;20.20;99.90;;;;;;5054031;28;20461;-79
2023/06/23 07:43:20;;;;;;;3.08;2.78;;;20.50;99.90;;;;;;5052971;28;20063;-78
2023/06/23 07:45:46;;;;;;;7.32;3.67;;;20.60;99.90;;;;;;5055378;28;20012;-79
2023/06/23 07:48:12;;;;;;;3.53;1.83;;;20.40;99.90;;;;;;5060340;28;20060;-79
2023/06/23 07:50:37;;;;;;;1.33;1.10;;;20.40;99.90;;;;;;5060371;28;20024;-79
2023/06/23 07:53:03;;;;;;;2.33;1.52;;;20.40;99.90;;;;;;5073842;28;20021;-78
2023/06/23 07:55:29;;;;;;;0.40;0.40;;;20.40;99.90;;;;;;5073566;28;20037;-78
2023/06/23 07:57:55;;;;;;;0.85;0.80;;;21.00;99.90;;;;;;5073780;28;20017;-79
2023/06/23 08:00:23;;;;;;;0.00;0.00;;;21.50;99.90;;;;;;5072236;28;20039;-78
2023/06/23 08:02:49;;;;;;;0.15;0.15;;;22.00;99.90;;;;;;5072651;28;20512;-79
2023/06/23 08:05:15;;;;;;;5.68;3.65;;;21.90;99.90;;;;;;5073413;28;20021;-78
2023/06/23 08:07:41;;;;;;;4.57;0.57;;;21.80;99.90;;;;;;5073614;28;20465;-79
2023/06/23 08:10:07;;;;;;;1.45;1.25;;;21.60;99.90;;;;;;5072276;28;20028;-79
2023/06/23 08:12:33;;;;;;;0.03;0.03;;;21.40;99.90;;;;;;5073788;28;20036;-79
2023/06/23 08:14:59;;;;;;;1.85;1.50;;;21.70;99.90;;;;;;5072930;28;20130;-78
2023/06/23 08:17:24;;;;;;;0.20;0.20;;;21.60;99.90;;;;;;5073640;28;20084;-80
2023/06/23 08:19:50;;;;;;;0.98;0.70;;;21.90;99.90;;;;;;5073364;28;20481;-79
2023/06/23 08:22:16;;;;;;;0.70;0.63;;;22.10;99.90;;;;;;5060315;28;20032;-80
2023/06/23 08:24:42;;;;;;;0.10;0.10;;;21.90;99.90;;;;;;5070854;28;20880;-79
2023/06/23 08:27:08;;;;;;;0.10;0.10;;;22.10;99.90;;;;;;5073304;28;20119;-79
2023/06/23 08:29:34;;;;;;;0.10;0.10;;;22.40;99.90;;;;;;5072943;28;20111;-79
2023/06/23 08:31:59;;;;;;;0.52;0.52;;;22.60;99.90;;;;;;5073567;28;20025;-79
2023/06/23 08:34:25;;;;;;;3.20;2.38;;;22.70;99.90;;;;;;5071522;28;20471;-79
2023/06/23 08:36:51;;;;;;;0.00;0.00;;;22.60;99.90;;;;;;5073269;28;20069;-79
2023/06/23 08:39:16;;;;;;;1.10;0.65;;;22.10;99.90;;;;;;5072872;28;20063;-79
2023/06/23 08:41:43;;;;;;;0.10;0.10;;;22.30;99.90;;;;;;5054778;28;20017;-79
2023/06/23 08:44:14;;;;;;;3.20;1.00;;;22.60;99.90;;;;;;5073224;28;20058;-78
2023/06/23 08:46:41;;;;;;;0.00;0.00;;;23.20;99.90;;;;;;5070781;28;20397;-79
2023/06/23 08:49:13;;;;;;;0.73;0.73;;;23.50;99.90;;;;;;5073040;28;20027;-80
2023/06/23 08:51:40;;;;;;;0.00;0.00;;;23.60;99.90;;;;;;5072783;28;20058;-79
2023/06/23 08:54:06;;;;;;;2.08;0.80;;;23.70;99.90;;;;;;5072780;28;20033;-78
2023/06/23 08:56:32;;;;;;;0.47;0.40;;;23.20;99.90;;;;;;5072861;28;20037;-78
2023/06/23 08:58:58;;;;;;;0.47;0.47;;;23.60;99.90;;;;;;5072606;28;20042;-79
2023/06/23 09:01:24;;;;;;;0.25;0.22;;;23.80;99.90;;;;;;5072658;28;20445;-79
2023/06/23 09:03:50;;;;;;;1.85;0.80;;;24.40;99.90;;;;;;5072738;28;20100;-79
2023/06/23 09:06:16;;;;;;;0.00;0.00;;;24.60;99.90;;;;;;5071456;28;20055;-79
2023/06/23 09:08:42;;;;;;;0.00;0.00;;;24.50;99.90;;;;;;5063414;28;20057;-78
2023/06/23 09:11:08;;;;;;;0.65;0.47;;;24.70;99.90;;;;;;5071462;28;20396;-79
2023/06/23 09:13:35;;;;;;;4.10;2.83;;;24.90;99.90;;;;;;5072156;28;20036;-78
2023/06/23 09:16:02;;;;;;;0.45;0.45;;;23.80;99.90;;;;;;5072302;28;20083;-78
2023/06/23 09:18:32;;;;;;;0.52;0.45;;;23.40;99.90;;;;;;5072871;28;20092;-78
2023/06/23 09:21:01;;;;;;;3.70;1.05;;;23.50;99.90;;;;;;5072302;28;20025;-78
2023/06/23 09:23:30;;;;;;;0.98;0.90;;;23.80;99.90;;;;;;5072477;28;20028;-78
2023/06/23 09:25:56;;;;;;;7.88;1.17;;;24.10;99.90;;;;;;5072202;28;20370;-78
2023/06/23 09:28:25;;;;;;;9.52;1.13;;;24.50;99.90;;;;;;5072581;28;20029;-79
2023/06/23 09:30:53;;;;;;;0.10;0.10;;;24.40;99.90;;;;;;5072553;28;20067;-78
2023/06/23 09:33:20;;;;;;;1.15;1.08;;;24.20;99.90;;;;;;5072438;28;20024;-78
2023/06/23 09:35:56;;;;;;;0.00;0.00;;;24.60;99.90;;;;;;5072270;28;20153;-78
2023/06/23 09:38:26;;;;;;;1.27;1.17;;;24.70;99.90;;;;;;5072468;28;20063;-78
2023/06/23 09:41:13;;;;;;;0.05;0.05;;;24.10;99.90;;;;;;5072139;28;20480;-78
2023/06/23 09:43:47;;;;;;;1.38;0.55;;;24.00;99.90;;;;;;5046561;28;20040;-78
2023/06/23 09:46:17;;;;;;;0.10;0.10;;;24.50;99.90;;;;;;5072052;28;20024;-78
2023/06/23 09:48:45;;;;;;;0.20;0.20;;;24.50;99.90;;;;;;5072689;28;20025;-78
2023/06/23 09:51:11;;;;;;;0.85;0.85;;;25.00;99.90;;;;;;5072155;28;20059;-78
2023/06/23 09:53:40;;;;;;;2.53;1.75;;;24.70;99.90;;;;;;5072377;28;20032;-79
2023/06/23 09:56:12;;;;;;;1.63;1.52;;;24.10;99.90;;;;;;5071969;28;20041;-79
2023/06/23 09:58:40;;;;;;;1.17;0.45;;;24.10;99.90;;;;;;5075455;28;20036;-78
2023/06/23 10:01:11;;;;;;;0.20;0.20;;;24.60;99.90;;;;;;5076106;28;20036;-78
2023/06/23 10:03:52;;;;;;;0.10;0.10;;;25.30;99.90;;;;;;5074831;28;20043;-79
2023/06/23 10:06:22;;;;;;;0.80;0.80;;;25.00;99.90;;;;;;5050398;28;20392;-79
2023/06/23 10:08:52;;;;;;;0.57;0.57;;;25.50;99.90;;;;;;5075971;28;20468;-78
2023/06/23 10:11:18;;;;;;;0.50;0.50;;;25.50;99.90;;;;;;5075388;28;20111;-78
2023/06/23 10:13:47;;;;;;;2.90;0.47;;;25.80;99.90;;;;;;5075506;28;20115;-79
2023/06/23 10:16:14;;;;;;;0.95;0.95;;;26.30;99.90;;;;;;5074284;28;20423;-79
2023/06/23 10:18:40;;;;;;;2.13;0.65;;;26.50;99.90;;;;;;5075752;28;20099;-79
2023/06/23 10:21:06;;;;;;;0.00;0.00;;;26.70;99.40;;;;;;5075653;28;20031;-78
2023/06/23 10:23:33;;;;;;;3.55;2.50;;;26.60;99.70;;;;;;5075821;28;20104;-78
2023/06/23 10:26:00;;;;;;;1.10;0.68;;;25.80;99.40;;;;;;5075263;28;20115;-78
2023/06/23 10:28:28;;;;;;;3.40;0.52;;;26.00;99.90;;;;;;5075678;28;20431;-78
2023/06/23 10:30:54;;;;;;;1.45;1.30;;;26.10;98.80;;;;;;5075946;28;20560;-79
2023/06/23 10:33:21;;;;;;;0.77;0.77;;;26.00;99.20;;;;;;5075379;28;20035;-79
2023/06/23 10:35:48;;;;;;;1.80;1.63;;;26.30;98.70;;;;;;5075834;28;20485;-79
2023/06/23 10:38:26;;;;;;;0.50;0.40;;;26.50;97.60;;;;;;5078411;28;20027;-79
2023/06/23 10:40:57;;;;;;;1.80;1.27;;;26.20;99.90;;;;;;5081028;28;20515;-79
2023/06/23 10:43:32;;;;;;;1.35;1.25;;;26.30;97.10;;;;;;5083292;28;20043;-78
2023/06/23 10:45:59;;;;;;;0.05;0.05;;;26.50;98.10;;;;;;5082073;28;20029;-79
2023/06/23 10:48:27;;;;;;;3.35;2.10;;;26.30;98.70;;;;;;5079850;28;20029;-78
2023/06/23 10:50:54;;;;;;;0.73;0.70;;;26.20;98.70;;;;;;5083977;28;20500;-78
2023/06/23 10:53:28;;;;;;;0.22;0.20;;;26.70;98.70;;;;;;5080826;28;20040;-78
2023/06/23 10:55:57;;;;;;;0.10;0.10;;;27.10;98.40;;;;;;5082641;28;20045;-78
2023/06/23 10:58:24;;;;;;;0.10;0.10;;;27.50;96.70;;;;;;5084828;28;20119;-80
2023/06/23 11:00:53;;;;;;;0.13;0.13;;;27.60;97.30;;;;;;5082641;28;20033;-78
2023/06/23 11:03:32;;;;;;;0.15;0.15;;;27.30;97.80;;;;;;5083508;28;20036;-77
2023/06/23 11:06:02;;;;;;;3.78;2.67;;;26.40;99.60;;;;;;5087078;28;20024;-79
2023/06/23 11:08:34;;;;;;;0.20;0.20;;;26.60;98.00;;;;;;5081236;28;20075;-79
2023/06/23 11:11:03;;;;;;;;;;;26.90;98.40;;;;;;5079567;28;20036;-78
2023/06/23 11:13:48;;;;;;;0.00;0.00;;;26.80;98.30;;;;;;5076745;28;19967;-78
2023/06/23 11:16:25;;;;;;;0.90;0.70;;;27.50;98.30;;;;;;5075371;28;20072;-78
2023/06/23 11:18:53;;;;;;;4.75;0.65;;;28.10;96.60;;;;;;5075242;28;20111;-79
2023/06/23 11:21:31;;;;;;;0.40;0.30;;;28.50;97.90;;;;;;5074720;28;20036;-79
2023/06/23 11:24:26;;;;;;;2.05;1.40;;;28.50;96.40;;;;;;5072839;28;20898;-79
2023/06/23 11:26:59;;;;;;;0.43;0.30;;;27.70;97.30;;;;;;5042350;28;20075;-81
2023/06/23 11:29:25;;;;;;;0.22;0.22;;;28.10;97.20;;;;;;5070349;28;20032;-80
2023/06/23 11:32:04;;;;;;;2.00;1.63;;;27.80;97.20;;;;;;5073133;28;20025;-80
2023/06/23 11:35:01;;;;;;;0.20;0.20;;;27.20;97.50;;;;;;5056311;28;20381;-79
2023/06/23 11:37:38;;;;;;;0.10;0.10;;;27.80;97.20;;;;;;5061822;28;20577;-79
2023/06/23 11:40:05;;;;;;;0.00;0.00;;;27.40;99.00;;;;;;5072857;28;20036;-79
2023/06/23 11:42:31;;;;;;;0.30;0.30;;;27.20;97.80;;;;;;5072981;28;20037;-79
2023/06/23 11:44:57;;;;;;;0.20;0.20;;;26.80;97.50;;;;;;5073007;28;20388;-79
2023/06/23 11:47:27;;;;;;;0.70;0.38;;;27.30;97.60;;;;;;5073209;28;20384;-80
2023/06/23 11:49:54;;;;;;;0.22;0.22;;;27.20;97.00;;;;;;5073919;28;20029;-79
2023/06/23 11:52:23;;;;;;;0.25;0.25;;;27.20;96.10;;;;;;5075967;28;20033;-80
2023/06/23 11:54:51;;;;;;;1.58;1.20;;;27.60;97.20;;;;;;5072804;28;20409;-79
2023/06/23 11:57:20;;;;;;;0.00;0.00;;;27.60;95.80;;;;;;5073877;28;20048;-80
2023/06/23 11:59:51;;;;;;;0.90;0.90;;;28.00;95.50;;;;;;5073690;28;20044;-79
2023/06/23 12:02:17;;;;;;;0.50;0.32;;;27.90;96.30;;;;;;5072751;28;20111;-81
2023/06/23 12:04:42;;;;;;;0.43;0.43;;;28.20;96.40;;;;;;5074183;28;20060;-80
2023/06/23 12:07:12;;;;;;;0.85;0.85;;;28.70;96.30;;;;;;5073579;28;20441;-79
2023/06/23 12:09:41;;;;;;;0.75;0.43;;;28.50;95.40;;;;;;5073737;28;20039;-80
2023/06/23 12:12:09;;;;;;;0.03;0.03;;;28.50;95.10;;;;;;5073793;28;20129;-80
2023/06/23 12:14:37;;;;;;;0.08;0.08;;;29.10;94.70;;;;;;5073585;28;20107;-80
2023/06/23 12:17:09;;;;;;;0.03;0.03;;;29.40;94.50;;;;;;5073821;28;20366;-80
2023/06/23 12:19:36;;;;;;;3.25;0.55;;;29.70;94.00;;;;;;5073409;28;20032;-80
2023/06/23 12:22:02;;;;;;;0.05;0.05;;;29.70;93.80;;;;;;5072982;28;20028;-80
2023/06/23 12:24:32;;;;;;;1.95;0.90;;;29.20;93.80;;;;;;5073170;28;20099;-80
2023/06/23 12:26:59;;;;;;;0.00;0.00;;;30.10;92.40;;;;;;5073429;28;20090;-81
2023/06/23 12:29:25;;;;;;;0.35;0.35;;;30.70;92.80;;;;;;5046126;28;20048;-80
2023/06/23 12:31:59;;;;;;;0.00;0.00;;;29.80;92.70;;;;;;5052304;28;20470;-81
2023/06/23 12:34:45;;;;;;;0.47;0.47;;;29.60;92.10;;;;;;5051983;28;20072;-79
2023/06/23 12:37:12;;;;;;;0.10;0.10;;;29.10;93.30;;;;;;5052202;28;20504;-80
2023/06/23 12:39:38;;;;;;;1.85;1.48;;;28.90;93.80;;;;;;5047225;28;20032;-79
2023/06/23 12:42:06;;;;;;;4.68;0.88;;;29.50;93.50;;;;;;5052018;28;20045;-80
2023/06/23 12:44:36;;;;;;;1.15;1.05;;;29.50;92.60;;;;;;5050801;28;20029;-80
2023/06/23 12:47:04;;;;;;;1.08;0.85;;;29.20;93.50;;;;;;5050977;28;20037;-79
2023/06/23 12:49:33;;;;;;;0.57;0.57;;;29.60;93.10;;;;;;5052102;28;20021;-80
2023/06/23 12:52:03;;;;;;;0.00;0.00;;;29.00;94.20;;;;;;5045229;28;20075;-79
2023/06/23 12:54:29;;;;;;;0.17;0.17;;;29.10;94.00;;;;;;5069872;28;20035;-79
2023/06/23 12:56:59;;;;;;;8.68;2.83;;;29.50;92.90;;;;;;5053515;28;20061;-79
2023/06/23 12:59:27;;;;;;;0.00;0.00;;;29.50;92.50;;;;;;5057673;28;20447;-79